Aeroporto :
LOGIN :

Iscrizione | Disclaimer

   EN    FR    IT 

 










Sommario :    VFR   VFR Marginale   IFR   IFR Intensivo   IFR Molto Intensivo
Visibilità : 
Base nubi : 
>= 8 km
>= 3000ft
5 / 8 km
1000 / 3000 ft
1500m / 5 km
500 / 1000 ft
800 / 1500m
200 / 500 ft
< 800m
< 200 ft
Simboli :   Temporali  Nebbia  Neve Forte  Precipitazioni Forti  Vento > 20 kt
SIGMETs :   Varie  Temporali  Ghiacco  Turbolenza  Onda orograficha  Ceneri Vulcaniche






- Altitudine del aeroporto : 776 ft
- Codice IATA : RMS


ETAR - Ramstein Air Base

ULTIMO METAR :
  • 141856Z AUTO 00000KT 9999 CLR 02/02 A2955 RMK AO2 SLP021 T00160016 $

METARs OBSOLETI :
  • 141756Z AUTO 11005KT 9999 M 02/02 A2955 RMK AO2 SLP021 T00210020 10081 20014 55004
  • 141656Z AUTO 00000KT 9999 CLR 04/02 A2957 RMK AO2 SLP026 T00350020 $
  • 141556Z AUTO 07004KT 9999 CLR 04/03 A2956 RMK AO2 SLP023 T00410029

TAF TAF ETAR
Valido dal 14 a 18 ore il 16 a 00 ore UTC


141800Z 1418/1524 VRB06KT 9999 SCT060 QNH2955INS
BECMG 1420/1421 05009KT 9999 SCT015 SCT100 510005 QNH2937INS
TEMPO 1422/1504 05010G20KT
BECMG 1509/1510 VRB06KT 9000 -RA SCT015 BKN090 620903 QNH2947INS
BECMG 1511/1512 22012G20KT 9000 -RA SCT015 BKN090 620903 510005 QNH2951INS
BECMG 1514/1515 22008KT 9999 NSW SCT015 SCT150 QNH2956INS TX06/1513Z TN01/1405Z



MetMap, La meteo Aeronautica in un colpo d'occhio ! - Copyright ORBIFLY Dicembre 2007 - Disclaimer

ORBIFLY MET'MAP TEAM :

Programmazione e sviluppo : Alexandra Zaïnal
Concezione e sviluppo : Baudouin d'Aumeries
Co-Programmazione e sviluppo : Marc-Olivier Méhu
Supporto tecnico e logistico : Manuel Goepfert
Aiuto per la traduzione : Arnaldo La Scala

Contatto : metmap@orbifly.com




FONTI E CREDITI :

   NOAA